Uniontown, Missouri
Current Conditions -  °F | °C
As of 11:53 PM on Tuesday 25 Nov 2014 (Local Time) from KCGI Reporting Station
Clear Clear  
Wind Chill: 22°   Ceiling: Unl
Heat Index: 27°   Visibility: 10mi
Dew Point: 25°   Wind: 5mph
Humidity: 92%   Direction: 100°E
Pressure: 30.17"   Gusts: NA
Location:  37.61°N, 89.71°W
Report Text: KCGI 260553Z AUTO 10004KT 10SM CLR M03/M04 A3017 RMK AO2 SLP220 T10281039 10028 21033 400671033 58009 TSNO
Loading
Personal Weather Stations






























Interactive Weather Map New forecast layout! Learn more

10-Day Weather Forecast

Advertisements
Track Severe Weather on mobile